Time;durP1;ratioP1;P1;durP2;ratioP2;P2;SDS_P1;SDS_P2;PMS_P1;PMS_P2;Temp;Humidity;BMP_temperature;BMP_pressure;BME280_temperature;BME280_humidity;BME280_pressure;Samples;Min_cycle;Max_cycle;Signal;HPM_P1;HPM_P2
2021/08/07 17:38:20;;;;;;;13.50;5.60;;;;;;;;;;4912727;28;20456;-78
2021/08/07 17:40:47;;;;;;;16.48;5.97;;;;;;;;;;4881311;29;20040;-81
2021/08/07 17:43:16;;;;;;;16.67;6.13;;;;;;;;;;4904483;29;20080;-85
2021/08/07 17:45:41;;;;;;;24.05;13.10;;;;;;;;;;4908756;29;20123;-83
2021/08/07 17:48:08;;;;;;;24.15;12.70;;;;;;;;;;4907057;29;20455;-84
2021/08/07 17:50:35;;;;;;;25.83;12.02;;;;;;;;;;4913256;29;20031;-83
2021/08/07 17:53:00;;;;;;;28.45;12.00;;;;;;;;;;4904634;29;20146;-84
2021/08/07 17:55:30;;;;;;;22.00;12.35;;;;;;;;;;4919985;29;20119;-81
2021/08/07 17:58:02;;;;;;;20.63;10.93;;;;;;;;;;4903942;29;20032;-80
2021/08/07 18:03:02;;;;;;;15.45;7.95;;;;;;;;;;4955883;23;20060;-78
2021/08/07 18:05:32;;;;;;;14.05;7.88;;;;;;;;;;4950142;29;20032;-80
2021/08/07 18:08:06;;;;;;;13.77;6.93;;;;;;;;;;4950169;29;20509;-82
2021/08/07 18:10:32;;;;;;;13.75;6.05;;;;;;;;;;4950556;29;20039;-82
2021/08/07 18:12:58;;;;;;;15.93;6.38;;;;;;;;;;4950751;28;20036;-80
2021/08/07 18:15:24;;;;;;;13.45;5.47;;;;;;;;;;4953931;23;20067;-80
2021/08/07 18:20:24;;;;;;;11.32;6.25;;;;;;;;;;4937980;23;20055;-79
2021/08/07 18:22:50;;;;;;;16.92;8.48;;;;;;;;;;4914311;29;20058;-78
2021/08/07 18:25:18;;;;;;;16.63;7.90;;;;;;;;;;4914339;29;20409;-81
2021/08/07 18:27:44;;;;;;;20.58;9.70;;;;;;;;;;4913254;29;20036;-80
2021/08/07 18:30:10;;;;;;;16.08;10.50;;;;;;;;;;4931608;29;20142;-80
2021/08/07 18:32:37;;;;;;;16.90;10.73;;;;;;;;;;4930903;29;20036;-78
2021/08/07 18:35:03;;;;;;;12.65;9.88;;;;;;;;;;4930729;29;20023;-82
2021/08/07 18:37:28;;;;;;;17.27;9.48;;;;;;;;;;4931208;29;20044;-79
2021/08/07 18:39:54;;;;;;;14.13;7.85;;;;;;;;;;4932198;29;20036;-83
2021/08/07 18:42:29;;;;;;;14.70;8.40;;;;;;;;;;4932333;29;20050;-83
2021/08/07 18:45:04;;;;;;;15.40;9.33;;;;;;;;;;4934335;29;20031;-83
2021/08/07 18:47:30;;;;;;;11.98;8.32;;;;;;;;;;4916193;29;20043;-82
2021/08/07 18:50:32;;;;;;;10.95;8.35;;;;;;;;;;4938419;28;20039;-82
2021/08/07 18:55:56;;;;;;;16.92;8.93;;;;;;;;;;5100747;23;20064;-83
2021/08/07 18:58:21;;;;;;;23.52;10.70;;;;;;;;;;4926151;29;20110;-82
2021/08/07 19:00:47;;;;;;;14.80;10.20;;;;;;;;;;4919447;29;20414;-78
2021/08/07 19:03:16;;;;;;;16.30;9.65;;;;;;;;;;4919563;29;20028;-80
2021/08/07 19:05:48;;;;;;;16.17;8.75;;;;;;;;;;4918812;29;20091;-78
2021/08/07 19:08:13;;;;;;;9.85;6.93;;;;;;;;;;4912060;29;20044;-80
2021/08/07 19:10:43;;;;;;;11.02;6.50;;;;;;;;;;4918345;29;20035;-81
2021/08/07 19:13:11;;;;;;;7.63;5.63;;;;;;;;;;4918021;29;20067;-81
2021/08/07 19:15:37;;;;;;;9.85;4.65;;;;;;;;;;4918242;29;20032;-79
2021/08/07 19:18:03;;;;;;;9.30;4.68;;;;;;;;;;4916559;29;20043;-83
2021/08/07 19:20:29;;;;;;;10.02;3.92;;;;;;;;;;4918027;29;20080;-81
2021/08/07 19:22:57;;;;;;;12.48;3.97;;;;;;;;;;4918337;29;20028;-83
2021/08/07 19:25:32;;;;;;;5.97;3.42;;;;;;;;;;4916700;29;20036;-84
2021/08/07 19:28:03;;;;;;;6.53;3.08;;;;;;;;;;4918420;29;20395;-84
2021/08/07 19:30:29;;;;;;;7.63;3.20;;;;;;;;;;4918374;29;20032;-84
2021/08/07 19:33:04;;;;;;;9.88;3.42;;;;;;;;;;4927970;23;20168;-82
2021/08/07 19:35:29;;;;;;;7.07;3.10;;;;;;;;;;4917741;29;20430;-82
2021/08/07 19:38:10;;;;;;;5.50;3.47;;;;;;;;;;4918093;29;20028;-82
2021/08/07 19:40:36;;;;;;;7.80;2.90;;;;;;;;;;4918017;29;20063;-84
2021/08/07 19:43:02;;;;;;;9.80;4.03;;;;;;;;;;4918354;29;20088;-84
2021/08/07 19:45:32;;;;;;;9.52;5.13;;;;;;;;;;4917108;29;20024;-83
2021/08/07 19:47:57;;;;;;;13.60;7.63;;;;;;;;;;4917455;29;20051;-84
2021/08/07 19:50:23;;;;;;;17.30;9.15;;;;;;;;;;4921331;29;20055;-81
2021/08/07 19:52:49;;;;;;;14.15;9.65;;;;;;;;;;4916814;29;20486;-78
2021/08/07 19:55:15;;;;;;;19.40;10.05;;;;;;;;;;4896634;29;20080;-78
2021/08/07 19:57:41;;;;;;;21.08;10.95;;;;;;;;;;4917076;29;20455;-79
2021/08/07 20:00:07;;;;;;;18.52;10.55;;;;;;;;;;4916131;29;20116;-78
2021/08/07 20:02:33;;;;;;;21.02;11.63;;;;;;;;;;4917596;29;20439;-77
2021/08/07 20:04:59;;;;;;;19.65;11.48;;;;;;;;;;4917416;29;20493;-82
2021/08/07 20:07:25;;;;;;;18.20;11.00;;;;;;;;;;4899897;29;20483;-79
2021/08/07 20:09:51;;;;;;;19.50;9.90;;;;;;;;;;4916567;29;20071;-79
2021/08/07 20:12:17;;;;;;;11.13;8.23;;;;;;;;;;4916960;29;20063;-79
2021/08/07 20:14:43;;;;;;;8.38;6.25;;;;;;;;;;4916378;29;20103;-79
2021/08/07 20:17:08;;;;;;;10.75;6.25;;;;;;;;;;4916216;29;20031;-79
2021/08/07 20:19:34;;;;;;;9.18;5.10;;;;;;;;;;4916003;29;20032;-79
2021/08/07 20:22:00;;;;;;;9.00;4.70;;;;;;;;;;4916154;29;20083;-80
2021/08/07 20:24:25;;;;;;;5.90;4.03;;;;;;;;;;4916640;29;20475;-80
2021/08/07 20:26:51;;;;;;;8.52;4.18;;;;;;;;;;4916321;29;20040;-80
2021/08/07 20:29:16;;;;;;;8.35;3.72;;;;;;;;;;4916256;29;20515;-80
2021/08/07 20:31:42;;;;;;;7.82;3.45;;;;;;;;;;4916846;29;20016;-80
2021/08/07 20:34:09;;;;;;;8.00;4.10;;;;;;;;;;4896368;29;20056;-80
2021/08/07 20:36:36;;;;;;;7.15;3.55;;;;;;;;;;4895971;29;20411;-79
2021/08/07 20:39:03;;;;;;;10.55;3.85;;;;;;;;;;4897587;29;20028;-79
2021/08/07 20:41:29;;;;;;;7.80;3.85;;;;;;;;;;4895301;29;20122;-79
2021/08/07 20:43:55;;;;;;;9.25;4.03;;;;;;;;;;4897479;29;20107;-78
2021/08/07 20:46:22;;;;;;;6.20;3.22;;;;;;;;;;4897628;29;20520;-80
2021/08/07 20:48:47;;;;;;;6.70;4.20;;;;;;;;;;4896827;29;20391;-80
2021/08/07 20:51:13;;;;;;;6.53;3.97;;;;;;;;;;4899958;29;20054;-80
2021/08/07 20:53:39;;;;;;;8.50;4.30;;;;;;;;;;4901372;29;20032;-79
2021/08/07 20:56:05;;;;;;;8.73;4.13;;;;;;;;;;4896068;29;20028;-80
2021/08/07 20:58:32;;;;;;;6.78;3.80;;;;;;;;;;4898445;29;20419;-81
2021/08/07 21:00:57;;;;;;;7.38;4.40;;;;;;;;;;4898919;29;20044;-81
2021/08/07 21:03:25;;;;;;;7.80;4.30;;;;;;;;;;4896490;29;20036;-81
2021/08/07 21:05:51;;;;;;;5.90;4.22;;;;;;;;;;4897135;29;20036;-80
2021/08/07 21:08:17;;;;;;;6.88;4.13;;;;;;;;;;4800408;29;20047;-79
2021/08/07 21:10:44;;;;;;;7.68;4.35;;;;;;;;;;4900764;29;20407;-81
2021/08/07 21:13:09;;;;;;;7.00;4.25;;;;;;;;;;4896201;29;20036;-80
2021/08/07 21:15:35;;;;;;;7.05;4.32;;;;;;;;;;4892391;29;20025;-78
2021/08/07 21:18:00;;;;;;;7.63;4.35;;;;;;;;;;4897678;29;20074;-80
2021/08/07 21:20:26;;;;;;;7.05;4.07;;;;;;;;;;4897452;29;20172;-79
2021/08/07 21:22:51;;;;;;;11.18;4.10;;;;;;;;;;4896282;29;20499;-81
2021/08/07 21:25:17;;;;;;;6.78;3.88;;;;;;;;;;4896272;29;20033;-79
2021/08/07 21:27:43;;;;;;;9.15;4.82;;;;;;;;;;4898515;29;20051;-80
2021/08/07 21:30:14;;;;;;;6.47;4.45;;;;;;;;;;4897486;29;20029;-79
2021/08/07 21:32:41;;;;;;;7.18;4.53;;;;;;;;;;4902607;29;20036;-81
2021/08/07 21:35:07;;;;;;;11.65;4.22;;;;;;;;;;4914842;29;20503;-80
2021/08/07 21:37:34;;;;;;;7.13;3.75;;;;;;;;;;4923463;29;20036;-83
2021/08/07 21:40:01;;;;;;;10.95;4.53;;;;;;;;;;4915805;29;20063;-80
2021/08/07 21:42:27;;;;;;;7.90;4.00;;;;;;;;;;4914687;29;20044;-80
2021/08/07 21:44:53;;;;;;;6.00;3.95;;;;;;;;;;4894155;29;20439;-79
2021/08/07 21:47:20;;;;;;;7.15;4.00;;;;;;;;;;4914497;29;20051;-82
2021/08/07 21:49:45;;;;;;;9.70;4.15;;;;;;;;;;4888786;29;20515;-80
2021/08/07 21:52:11;;;;;;;7.88;3.97;;;;;;;;;;4916469;29;20036;-82
2021/08/07 21:54:36;;;;;;;7.43;3.88;;;;;;;;;;4898652;29;20043;-83
2021/08/07 21:57:02;;;;;;;8.73;4.75;;;;;;;;;;4915555;29;20071;-80
2021/08/07 21:59:28;;;;;;;13.52;4.38;;;;;;;;;;4902583;29;20476;-80
2021/08/07 22:01:55;;;;;;;10.30;4.43;;;;;;;;;;4918782;29;20079;-80
2021/08/07 22:04:23;;;;;;;8.25;4.07;;;;;;;;;;4915696;29;20176;-80
2021/08/07 22:06:48;;;;;;;10.23;4.25;;;;;;;;;;4915892;29;20055;-85
2021/08/07 22:09:17;;;;;;;6.85;4.05;;;;;;;;;;4919225;29;20414;-82
2021/08/07 22:11:44;;;;;;;9.73;4.10;;;;;;;;;;4915335;29;20040;-81
2021/08/07 22:14:09;;;;;;;13.45;4.53;;;;;;;;;;4915230;29;20036;-83
2021/08/07 22:16:35;;;;;;;12.23;4.15;;;;;;;;;;4918354;29;20023;-83
2021/08/07 22:19:00;;;;;;;8.00;4.88;;;;;;;;;;4915835;29;20039;-84
2021/08/07 22:21:26;;;;;;;11.57;4.55;;;;;;;;;;4920317;29;20087;-82
2021/08/07 22:23:52;;;;;;;7.93;4.30;;;;;;;;;;4917102;29;20059;-83
2021/08/07 22:26:18;;;;;;;13.43;4.97;;;;;;;;;;4918906;29;20047;-83
2021/08/07 22:28:43;;;;;;;7.53;4.30;;;;;;;;;;4919078;29;20547;-83
2021/08/07 22:31:10;;;;;;;12.45;4.10;;;;;;;;;;4919067;29;20032;-84
2021/08/07 22:33:37;;;;;;;10.52;4.18;;;;;;;;;;4901765;29;20060;-83
2021/08/07 22:36:03;;;;;;;7.50;4.18;;;;;;;;;;4920168;29;20035;-82
2021/08/07 22:38:28;;;;;;;8.90;4.43;;;;;;;;;;4919870;29;20036;-83
2021/08/07 22:40:56;;;;;;;8.88;4.40;;;;;;;;;;4936445;29;20472;-83
2021/08/07 22:43:22;;;;;;;6.28;3.75;;;;;;;;;;4918767;29;20028;-82
2021/08/07 22:45:47;;;;;;;11.90;4.10;;;;;;;;;;4919070;29;20083;-84
2021/08/07 22:48:13;;;;;;;5.97;3.40;;;;;;;;;;4922446;29;20561;-84
2021/08/07 22:50:38;;;;;;;6.38;3.80;;;;;;;;;;4922232;29;20549;-83
2021/08/07 22:53:04;;;;;;;10.38;3.88;;;;;;;;;;4901589;29;20145;-81
2021/08/07 22:55:33;;;;;;;10.68;4.07;;;;;;;;;;4919096;29;20060;-80
2021/08/07 22:57:58;;;;;;;6.55;3.88;;;;;;;;;;4918189;29;20492;-81
2021/08/07 23:00:24;;;;;;;7.72;4.93;;;;;;;;;;4918592;29;20078;-81
2021/08/07 23:02:49;;;;;;;6.88;4.57;;;;;;;;;;4917868;29;20024;-82
2021/08/07 23:05:15;;;;;;;8.82;4.25;;;;;;;;;;4908437;29;20040;-83
2021/08/07 23:07:41;;;;;;;12.25;4.75;;;;;;;;;;4917457;29;20047;-81
2021/08/07 23:10:07;;;;;;;7.65;5.10;;;;;;;;;;4921638;29;20092;-79
2021/08/07 23:12:32;;;;;;;9.73;4.55;;;;;;;;;;4917900;29;20043;-81
2021/08/07 23:14:58;;;;;;;7.45;5.30;;;;;;;;;;4917717;29;20028;-81
2021/08/07 23:17:26;;;;;;;12.52;5.55;;;;;;;;;;4928362;29;20051;-82
2021/08/07 23:19:51;;;;;;;11.38;6.00;;;;;;;;;;4933710;29;20475;-82
2021/08/07 23:22:17;;;;;;;10.38;5.38;;;;;;;;;;4918281;29;20092;-81
2021/08/07 23:24:43;;;;;;;10.10;5.88;;;;;;;;;;4904073;29;20035;-82
2021/08/07 23:27:08;;;;;;;14.95;6.57;;;;;;;;;;4917988;29;20130;-80
2021/08/07 23:29:34;;;;;;;14.38;7.15;;;;;;;;;;4916783;29;20040;-80
2021/08/07 23:31:59;;;;;;;15.32;7.28;;;;;;;;;;4917836;29;20044;-82
2021/08/07 23:34:25;;;;;;;13.13;7.70;;;;;;;;;;4916432;29;20052;-83
2021/08/07 23:36:50;;;;;;;16.80;9.20;;;;;;;;;;4904862;29;20106;-84
2021/08/07 23:39:16;;;;;;;19.35;8.55;;;;;;;;;;4901480;29;20126;-84
2021/08/07 23:41:41;;;;;;;24.20;8.05;;;;;;;;;;4925508;29;20068;-85
2021/08/07 23:44:07;;;;;;;18.48;9.20;;;;;;;;;;4922851;29;20032;-84
2021/08/07 23:46:33;;;;;;;16.58;8.65;;;;;;;;;;4918272;29;20047;-85
2021/08/07 23:48:58;;;;;;;15.85;8.30;;;;;;;;;;4917060;29;20067;-84
2021/08/07 23:51:24;;;;;;;18.23;9.13;;;;;;;;;;4917215;29;20118;-84
2021/08/07 23:53:49;;;;;;;20.45;8.85;;;;;;;;;;4917401;29;20131;-84
2021/08/07 23:56:15;;;;;;;19.35;9.35;;;;;;;;;;4917409;29;20028;-84
2021/08/07 23:58:40;;;;;;;22.40;9.77;;;;;;;;;;4917539;29;20032;-81
